Bratislava — USOA — position and weather

sailwx.info

Track history (hours):
 
Tides and Currents Weather Stations Pressure Air Temp Water Temp Dewpoint Dewpoint Depression Visibility Wind Speed Wind Dir Waves Ship Positions

Bratislava

Last reported at 2017-Oct-09 14:49 UTC. Time now 2017-Oct-19 02:04 UTC.
Position N 48°12' E 014°58'.
Warning: this ship's position is 9 days out of date.

Length 58 m; draft 0.2 m.

Type: Ship. MMSI: 272040900.

Date/timePositionNaut miles runAvg speedWind from/ knotsBaromVisibWave heightAir tempDewpointWater temp
2017-Oct-09 14:49N 48°12' E 014°58'2 5.8
2017-Oct-09 14:30N 48°12' E 015°00'3 5.7
2017-Oct-09 14:00N 48°11' E 015°04'0 0.3
2017-Oct-09 13:30N 48°11' E 015°04'1 2.2
2017-Oct-09 13:00N 48°10' E 015°05'1 2.3
2017-Oct-09 12:30N 48°11' E 015°07'2 3.5
2017-Oct-09 12:00N 48°13' E 015°08'3 5.0
2017-Oct-09 11:30N 48°13' E 015°12'3 5.8
2017-Oct-09 10:59N 48°13' E 015°16'49 2.8
2017-Oct-08 17:47N 48°11' E 016°29'16 2.1
2017-Oct-08 09:58N 48°08' E 016°53'1 2.5
2017-Oct-08 09:29N 48°09' E 016°54'1 2.3
2017-Oct-08 09:00N 48°09' E 016°56'1 2.4
2017-Oct-08 08:30N 48°10' E 016°57'1 1.8
2017-Oct-08 07:52N 48°10' E 016°59'1 2.2
2017-Oct-08 07:30N 48°10' E 016°60'1 1.6
2017-Oct-08 06:59N 48°09' E 017°01'1 2.6
2017-Oct-08 06:30N 48°08' E 017°02'1 2.6
2017-Oct-08 06:00N 48°09' E 017°04'1 2.8
2017-Oct-08 05:30N 48°08' E 017°06'2 3.2
2017-Oct-08 05:00N 48°08' E 017°08'1 2.4
2017-Oct-08 04:30N 48°07' E 017°09'2 3.9
2017-Oct-08 04:00N 48°05' E 017°09'3 5.4
2017-Oct-08 03:30N 48°03' E 017°12'3 5.2
2017-Oct-08 03:00N 48°02' E 017°15'3 5.9
2017-Oct-08 02:30N 48°00' E 017°19'3 6.3
2017-Oct-08 02:00N 47°59' E 017°23'3 6.5
2017-Oct-08 01:30N 47°57' E 017°27'3 6.5
2017-Oct-08 01:00N 47°55' E 017°30'2 4.4
2017-Oct-08 00:30N 47°53' E 017°32'0 0.6
2017-Oct-08 00:00N 47°53' E 017°33'1 2.0
2017-Oct-07 23:30N 47°52' E 017°33'0 0.1
2017-Oct-07 23:00N 47°52' E 017°33'1 2.3
2017-Oct-07 22:30N 47°51' E 017°34'3 5.4
2017-Oct-07 22:00N 47°49' E 017°37'2 0.2
2017-Oct-07 09:34N 47°51' E 017°35'1 7.3
2017-Oct-07 09:28N 47°51' E 017°34'2 3.7
2017-Oct-07 08:53N 47°53' E 017°32'1 3.1
2017-Oct-07 08:30N 47°54' E 017°31'4 7.0
2017-Oct-07 08:00N 47°56' E 017°27'4 7.1
2017-Oct-07 07:30N 47°59' E 017°23'3 6.6
2017-Oct-07 07:00N 48°00' E 017°19'3 6.6
2017-Oct-07 06:30N 48°02' E 017°15'4 7.9
2017-Oct-07 06:00N 48°04' E 017°10'4 8.2
2017-Oct-07 05:30N 48°08' E 017°08'5 9.5
2017-Oct-07 05:00N 48°09' E 017°01'4 7.1
2017-Oct-07 04:30N 48°09' E 016°56'18 7.5
2017-Oct-07 02:02N 48°11' E 016°29'0 1.3
2017-Oct-07 01:56N 48°11' E 016°29'46 5.0
2017-Oct-06 16:42N 48°14' E 015°19'1 1.7
2017-Oct-06 16:19N 48°14' E 015°18'1 2.4
2017-Oct-06 15:59N 48°14' E 015°17'3 6.7
2017-Oct-06 15:30N 48°13' E 015°12'4 7.6
2017-Oct-06 15:00N 48°12' E 015°07'2 3.1
2017-Oct-06 14:30N 48°11' E 015°04'0 0.8
2017-Oct-06 14:00N 48°12' E 015°04'2 3.7
2017-Oct-06 13:30N 48°12' E 015°01'  
Track history (hours):
 
Tides and Currents Weather Stations Pressure Air Temp Water Temp Dewpoint Dewpoint Depression Visibility Wind Speed Wind Dir Waves Ship Positions

Bratislava

Last reported at 2017-Oct-09 14:49 UTC. Time now 2017-Oct-19 02:04 UTC.
Position N 48°12' E 014°58'.
Warning: this ship's position is 9 days out of date.

Length 58 m; draft 0.2 m.

Type: Ship. MMSI: 272040900.

Date/timePositionNaut miles runAvg speedWind from/ knotsBaromVisibWave heightAir tempDewpointWater temp
2017-Oct-09 14:49N 48°12' E 014°58'2 5.8
2017-Oct-09 14:30N 48°12' E 015°00'3 5.7
2017-Oct-09 14:00N 48°11' E 015°04'0 0.3
2017-Oct-09 13:30N 48°11' E 015°04'1 2.2
2017-Oct-09 13:00N 48°10' E 015°05'1 2.3
2017-Oct-09 12:30N 48°11' E 015°07'2 3.5
2017-Oct-09 12:00N 48°13' E 015°08'3 5.0
2017-Oct-09 11:30N 48°13' E 015°12'3 5.8
2017-Oct-09 10:59N 48°13' E 015°16'49 2.8
2017-Oct-08 17:47N 48°11' E 016°29'16 2.1
2017-Oct-08 09:58N 48°08' E 016°53'1 2.5
2017-Oct-08 09:29N 48°09' E 016°54'1 2.3
2017-Oct-08 09:00N 48°09' E 016°56'1 2.4
2017-Oct-08 08:30N 48°10' E 016°57'1 1.8
2017-Oct-08 07:52N 48°10' E 016°59'1 2.2
2017-Oct-08 07:30N 48°10' E 016°60'1 1.6
2017-Oct-08 06:59N 48°09' E 017°01'1 2.6
2017-Oct-08 06:30N 48°08' E 017°02'1 2.6
2017-Oct-08 06:00N 48°09' E 017°04'1 2.8
2017-Oct-08 05:30N 48°08' E 017°06'2 3.2
2017-Oct-08 05:00N 48°08' E 017°08'1 2.4
2017-Oct-08 04:30N 48°07' E 017°09'2 3.9
2017-Oct-08 04:00N 48°05' E 017°09'3 5.4
2017-Oct-08 03:30N 48°03' E 017°12'3 5.2
2017-Oct-08 03:00N 48°02' E 017°15'3 5.9
2017-Oct-08 02:30N 48°00' E 017°19'3 6.3
2017-Oct-08 02:00N 47°59' E 017°23'3 6.5
2017-Oct-08 01:30N 47°57' E 017°27'3 6.5
2017-Oct-08 01:00N 47°55' E 017°30'2 4.4
2017-Oct-08 00:30N 47°53' E 017°32'0 0.6
2017-Oct-08 00:00N 47°53' E 017°33'1 2.0
2017-Oct-07 23:30N 47°52' E 017°33'0 0.1
2017-Oct-07 23:00N 47°52' E 017°33'1 2.3
2017-Oct-07 22:30N 47°51' E 017°34'3 5.4
2017-Oct-07 22:00N 47°49' E 017°37'2 0.2
2017-Oct-07 09:34N 47°51' E 017°35'1 7.3
2017-Oct-07 09:28N 47°51' E 017°34'2 3.7
2017-Oct-07 08:53N 47°53' E 017°32'1 3.1
2017-Oct-07 08:30N 47°54' E 017°31'4 7.0
2017-Oct-07 08:00N 47°56' E 017°27'4 7.1
2017-Oct-07 07:30N 47°59' E 017°23'3 6.6
2017-Oct-07 07:00N 48°00' E 017°19'3 6.6
2017-Oct-07 06:30N 48°02' E 017°15'4 7.9
2017-Oct-07 06:00N 48°04' E 017°10'4 8.2
2017-Oct-07 05:30N 48°08' E 017°08'5 9.5
2017-Oct-07 05:00N 48°09' E 017°01'4 7.1
2017-Oct-07 04:30N 48°09' E 016°56'18 7.5
2017-Oct-07 02:02N 48°11' E 016°29'0 1.3
2017-Oct-07 01:56N 48°11' E 016°29'46 5.0
2017-Oct-06 16:42N 48°14' E 015°19'1 1.7
2017-Oct-06 16:19N 48°14' E 015°18'1 2.4
2017-Oct-06 15:59N 48°14' E 015°17'3 6.7
2017-Oct-06 15:30N 48°13' E 015°12'4 7.6
2017-Oct-06 15:00N 48°12' E 015°07'2 3.1
2017-Oct-06 14:30N 48°11' E 015°04'0 0.8
2017-Oct-06 14:00N 48°12' E 015°04'2 3.7
2017-Oct-06 13:30N 48°12' E 015°01'  

Dump ship's entire track history